Time;durP1;ratioP1;P1;durP2;ratioP2;P2;SDS_P1;SDS_P2;PMS_P1;PMS_P2;Temp;Humidity;BMP_temperature;BMP_pressure;BME280_temperature;BME280_humidity;BME280_pressure;Samples;Min_cycle;Max_cycle;Signal;HPM_P1;HPM_P2
2021/07/08 00:00:37;;;;;;;1999.90;999.90;;;20.40;99.90;;;;;;5096798;28;20374;-81
2021/07/08 00:03:03;;;;;;;1999.90;999.90;;;20.40;99.90;;;;;;5096767;28;20383;-81
2021/07/08 00:05:29;;;;;;;1999.90;999.90;;;20.40;99.90;;;;;;5078314;28;20430;-81
2021/07/08 00:08:04;;;;;;;1999.90;999.90;;;20.40;99.90;;;;;;5096837;28;20405;-81
2021/07/08 00:10:38;;;;;;;1999.90;999.90;;;20.30;99.90;;;;;;5080073;28;20474;-81
2021/07/08 00:13:12;;;;;;;1999.90;999.90;;;20.30;99.90;;;;;;5096201;28;20449;-81
2021/07/08 00:15:44;;;;;;;1999.90;999.90;;;20.30;99.90;;;;;;5096633;28;20423;-81
2021/07/08 00:18:14;;;;;;;1999.90;999.90;;;20.30;99.90;;;;;;5096381;28;20402;-81
2021/07/08 00:20:46;;;;;;;1999.90;999.90;;;20.30;99.90;;;;;;5096882;28;20398;-81
2021/07/08 00:23:16;;;;;;;1999.90;999.90;;;20.20;99.90;;;;;;5097493;28;20378;-81
2021/07/08 00:25:42;;;;;;;1999.90;999.90;;;20.20;99.90;;;;;;5082401;28;20473;-81
2021/07/08 00:28:15;;;;;;;1999.90;999.90;;;20.20;99.90;;;;;;5099772;28;20421;-81
2021/07/08 00:30:47;;;;;;;1999.90;999.90;;;20.20;99.90;;;;;;5082425;28;20416;-81
2021/07/08 00:33:16;;;;;;;1999.90;999.90;;;20.20;99.90;;;;;;5099914;28;20417;-81
2021/07/08 00:35:45;;;;;;;1999.90;999.90;;;20.10;99.90;;;;;;5100165;28;20405;-81
2021/07/08 00:38:11;;;;;;;1999.90;999.90;;;20.10;99.90;;;;;;5099789;28;20426;-81
2021/07/08 00:40:40;;;;;;;1999.90;999.90;;;20.10;99.90;;;;;;5100322;28;20408;-81
2021/07/08 00:43:07;;;;;;;1999.90;999.90;;;20.10;99.90;;;;;;5099745;28;20194;-81
2021/07/08 00:45:33;;;;;;;1999.90;999.90;;;20.10;99.90;;;;;;5099489;28;20414;-81
2021/07/08 00:48:02;;;;;;;1999.90;999.90;;;20.00;99.90;;;;;;5098604;28;20938;-81
2021/07/08 00:50:42;;;;;;;1999.90;999.90;;;20.00;99.90;;;;;;5099442;28;20895;-81
2021/07/08 00:53:15;;;;;;;1999.90;999.90;;;20.00;99.90;;;;;;5099532;28;20517;-81
2021/07/08 00:55:53;;;;;;;1999.90;999.90;;;20.00;99.90;;;;;;5099448;28;20458;-81
2021/07/08 00:58:24;;;;;;;1999.90;999.90;;;19.90;99.90;;;;;;5080421;28;21030;-81
2021/07/08 01:01:02;;;;;;;1999.90;999.90;;;19.90;99.90;;;;;;5099244;28;20381;-81
2021/07/08 01:03:34;;;;;;;1999.90;999.90;;;19.80;99.90;;;;;;5099789;28;20375;-81
2021/07/08 01:06:21;;;;;;;1999.90;999.90;;;19.80;99.90;;;;;;5082420;28;20428;-81
2021/07/08 01:08:59;;;;;;;1999.90;999.90;;;19.80;99.90;;;;;;5097649;28;20834;-81
2021/07/08 01:11:25;;;;;;;1999.90;999.90;;;19.80;99.90;;;;;;5098887;28;20441;-81
2021/07/08 01:13:54;;;;;;;1999.90;999.90;;;19.80;99.90;;;;;;5098937;28;20486;-81
2021/07/08 01:16:24;;;;;;;1999.90;999.90;;;19.70;99.90;;;;;;5098687;28;20433;-81
2021/07/08 01:18:50;;;;;;;1999.90;999.90;;;19.70;99.90;;;;;;5098613;28;20410;-81
2021/07/08 01:21:44;;;;;;;1999.90;999.90;;;19.70;99.90;;;;;;5099091;28;20413;-81
2021/07/08 01:24:16;;;;;;;1999.90;999.90;;;19.60;99.90;;;;;;5079992;28;20543;-81
2021/07/08 01:26:45;;;;;;;1999.90;999.90;;;19.70;99.90;;;;;;5081193;28;20468;-81
2021/07/08 01:29:11;;;;;;;1999.90;999.90;;;19.60;99.90;;;;;;5098452;28;20428;-81
2021/07/08 01:31:40;;;;;;;1999.90;999.90;;;19.60;99.90;;;;;;5098517;28;20441;-81
2021/07/08 01:34:20;;;;;;;1999.90;999.90;;;19.60;99.90;;;;;;5149182;22;20508;-83
2021/07/08 01:36:46;;;;;;;1999.90;999.90;;;19.50;99.90;;;;;;5076997;28;20418;-82
2021/07/08 01:39:12;;;;;;;1999.90;999.90;;;19.50;99.90;;;;;;5077565;28;20171;-82
2021/07/08 01:41:38;;;;;;;1999.90;999.90;;;19.50;99.90;;;;;;5058813;28;20168;-82
2021/07/08 01:44:07;;;;;;;1999.90;999.90;;;19.50;99.90;;;;;;5075787;28;20406;-82
2021/07/08 01:46:32;;;;;;;1999.90;999.90;;;19.50;99.90;;;;;;5076980;28;20610;-82
2021/07/08 01:48:58;;;;;;;1999.90;999.90;;;19.40;99.90;;;;;;5077537;28;20430;-83
2021/07/08 01:51:24;;;;;;;1999.90;999.90;;;19.40;99.90;;;;;;5077216;28;20188;-82
2021/07/08 01:53:51;;;;;;;1999.90;999.90;;;19.40;99.90;;;;;;5077308;28;20168;-83
2021/07/08 01:56:17;;;;;;;1999.90;999.90;;;19.30;99.90;;;;;;5059027;28;20562;-82
2021/07/08 01:58:43;;;;;;;1999.90;999.90;;;19.30;99.90;;;;;;5077680;28;20503;-82
2021/07/08 02:01:09;;;;;;;1999.90;999.90;;;19.30;99.90;;;;;;5059016;28;20818;-82
2021/07/08 02:03:35;;;;;;;1999.90;999.90;;;19.30;99.90;;;;;;5076950;28;20408;-82
2021/07/08 02:06:01;;;;;;;1999.90;999.90;;;19.30;99.90;;;;;;5076679;28;20188;-82
2021/07/08 02:08:26;;;;;;;1999.90;999.90;;;19.30;99.90;;;;;;5075195;28;20205;-82
2021/07/08 02:10:52;;;;;;;1999.90;999.90;;;19.30;99.90;;;;;;5076936;28;20197;-82
2021/07/08 02:13:18;;;;;;;1999.90;999.90;;;19.30;99.90;;;;;;5076937;28;20239;-83
2021/07/08 02:15:44;;;;;;;1999.90;999.90;;;19.30;99.90;;;;;;5077016;28;20226;-83
2021/07/08 02:18:09;;;;;;;1999.90;999.90;;;19.30;99.90;;;;;;5076584;28;20210;-82
2021/07/08 02:20:36;;;;;;;1999.90;999.90;;;19.30;99.90;;;;;;5076464;28;20499;-82
2021/07/08 02:23:02;;;;;;;1999.90;999.90;;;19.20;99.90;;;;;;5076284;28;20168;-83
2021/07/08 02:25:28;;;;;;;1999.90;999.90;;;19.30;99.90;;;;;;5076372;28;20423;-82
2021/07/08 02:27:54;;;;;;;1999.90;999.90;;;19.30;99.90;;;;;;5076451;28;20164;-82
2021/07/08 02:30:22;;;;;;;1999.90;999.90;;;19.20;99.90;;;;;;5075445;28;20175;-82
2021/07/08 02:32:51;;;;;;;1999.90;999.90;;;19.30;99.90;;;;;;5075795;28;20583;-83
2021/07/08 02:35:18;;;;;;;1999.90;999.90;;;19.30;99.90;;;;;;5076172;28;20799;-82
2021/07/08 02:37:44;;;;;;;1999.90;999.90;;;19.20;99.90;;;;;;5059106;28;20413;-82
2021/07/08 02:40:16;;;;;;;1999.90;999.90;;;19.20;99.90;;;;;;5076246;28;20812;-83
2021/07/08 02:42:50;;;;;;;1999.90;999.90;;;19.10;99.90;;;;;;5058237;28;20414;-83
2021/07/08 02:45:20;;;;;;;1999.90;999.90;;;19.10;99.90;;;;;;5075716;28;20375;-82
2021/07/08 02:47:46;;;;;;;1999.90;999.90;;;19.10;99.90;;;;;;5074567;28;20413;-82
2021/07/08 02:50:12;;;;;;;1999.90;999.90;;;19.10;99.90;;;;;;5074682;28;20852;-82
2021/07/08 02:52:37;;;;;;;1999.90;999.90;;;19.00;99.90;;;;;;5074979;28;20210;-83
2021/07/08 02:55:07;;;;;;;1999.90;999.90;;;19.00;99.90;;;;;;5075474;28;20156;-82
2021/07/08 02:57:32;;;;;;;1999.90;999.90;;;19.00;99.90;;;;;;5075435;28;20217;-82
2021/07/08 02:59:58;;;;;;;1999.90;999.90;;;19.00;99.90;;;;;;5057414;28;20933;-82
2021/07/08 03:02:24;;;;;;;1999.90;999.90;;;18.90;99.90;;;;;;5074255;28;20253;-83
2021/07/08 03:04:49;;;;;;;1999.90;999.90;;;18.80;99.90;;;;;;5076157;28;20173;-83
2021/07/08 03:07:17;;;;;;;1999.90;999.90;;;18.80;99.90;;;;;;5075711;28;20188;-82
2021/07/08 03:09:42;;;;;;;1999.90;999.90;;;18.70;99.90;;;;;;5075630;28;20178;-82
2021/07/08 03:12:08;;;;;;;1999.90;999.90;;;18.70;99.90;;;;;;5075652;28;20956;-82
2021/07/08 03:14:34;;;;;;;1999.90;999.90;;;18.70;99.90;;;;;;5075689;28;20527;-83
2021/07/08 03:17:00;;;;;;;1999.90;999.90;;;18.70;99.90;;;;;;5075079;28;20180;-82
2021/07/08 03:19:26;;;;;;;1999.90;999.90;;;18.70;99.90;;;;;;5076159;28;20406;-83
2021/07/08 03:21:52;;;;;;;1999.90;999.90;;;18.70;99.90;;;;;;5075532;28;20398;-83
2021/07/08 03:24:17;;;;;;;1999.90;999.90;;;18.70;99.90;;;;;;5075119;28;20164;-82
2021/07/08 03:26:43;;;;;;;1999.90;999.90;;;18.70;99.90;;;;;;5075324;28;20708;-82
2021/07/08 03:29:09;;;;;;;1999.90;999.90;;;18.60;99.90;;;;;;5074162;28;20172;-82
2021/07/08 03:31:35;;;;;;;1999.90;999.90;;;18.60;99.90;;;;;;5073782;28;20265;-83
2021/07/08 03:34:01;;;;;;;1999.90;999.90;;;18.60;99.90;;;;;;5075417;28;20409;-83
2021/07/08 03:36:27;;;;;;;1999.90;999.90;;;18.60;99.90;;;;;;5075378;28;20593;-82
2021/07/08 03:38:52;;;;;;;1999.90;999.90;;;18.60;99.90;;;;;;5075826;28;20238;-83
2021/07/08 03:41:18;;;;;;;1999.90;999.90;;;18.50;99.90;;;;;;5076007;28;20408;-83
2021/07/08 03:43:44;;;;;;;1999.90;999.90;;;18.50;99.90;;;;;;5074969;28;20168;-82
2021/07/08 03:46:10;;;;;;;1999.90;999.90;;;18.50;99.90;;;;;;5073976;28;20196;-82
2021/07/08 03:48:35;;;;;;;1999.90;999.90;;;18.60;99.90;;;;;;5075027;28;20952;-82
2021/07/08 03:51:01;;;;;;;1999.90;999.90;;;18.60;99.90;;;;;;5074823;28;20654;-82
2021/07/08 03:53:27;;;;;;;1999.90;999.90;;;18.60;99.90;;;;;;5075254;28;20249;-83
2021/07/08 03:55:52;;;;;;;1999.90;999.90;;;18.60;99.90;;;;;;5075337;28;20180;-83
2021/07/08 03:58:18;;;;;;;1999.90;999.90;;;18.60;99.90;;;;;;5077131;28;20218;-84
2021/07/08 04:00:44;;;;;;;1999.90;999.90;;;18.60;99.90;;;;;;5079074;28;20166;-82
2021/07/08 04:03:16;;;;;;;1999.90;999.90;;;18.60;99.90;;;;;;5061524;28;20206;-82
2021/07/08 04:05:44;;;;;;;1999.90;999.90;;;18.60;99.90;;;;;;5078961;28;20450;-82
2021/07/08 04:08:10;;;;;;;1999.90;999.90;;;18.50;99.90;;;;;;5078981;28;20406;-83
2021/07/08 04:10:37;;;;;;;1999.90;999.90;;;18.50;99.90;;;;;;5061034;28;20453;-83
2021/07/08 04:13:12;;;;;;;1999.90;999.90;;;18.50;99.90;;;;;;5079206;28;20515;-83
2021/07/08 04:15:39;;;;;;;1999.90;999.90;;;18.60;99.90;;;;;;5060691;28;20430;-82
2021/07/08 04:18:06;;;;;;;1999.90;999.90;;;18.60;99.90;;;;;;5061118;28;20410;-82
2021/07/08 04:20:32;;;;;;;1999.90;999.90;;;18.60;99.90;;;;;;5079290;28;20405;-82
2021/07/08 04:22:58;;;;;;;1999.90;999.90;;;18.60;99.90;;;;;;5078867;28;20403;-82
2021/07/08 04:25:24;;;;;;;1999.90;999.90;;;18.60;99.90;;;;;;5078560;28;20429;-82
2021/07/08 04:27:50;;;;;;;1999.90;999.90;;;18.60;99.90;;;;;;5079428;28;20501;-83
2021/07/08 04:30:19;;;;;;;1999.90;999.90;;;18.60;99.90;;;;;;5078270;28;20168;-82
2021/07/08 04:32:45;;;;;;;1999.90;999.90;;;18.70;99.90;;;;;;5078131;28;20500;-82
2021/07/08 04:35:15;;;;;;;1999.90;999.90;;;18.70;99.90;;;;;;5078305;28;20390;-82
2021/07/08 04:37:41;;;;;;;1999.90;999.90;;;18.70;99.90;;;;;;5078147;28;20398;-83
2021/07/08 04:40:13;;;;;;;1999.90;999.90;;;18.70;99.90;;;;;;5078349;28;20402;-82
2021/07/08 04:42:40;;;;;;;1999.90;999.90;;;18.70;99.90;;;;;;5060263;28;20418;-83
2021/07/08 04:45:07;;;;;;;1999.90;999.90;;;18.70;99.90;;;;;;5076710;28;20402;-82
2021/07/08 04:47:35;;;;;;;1999.90;999.90;;;18.70;99.90;;;;;;5059751;28;20493;-83
2021/07/08 04:50:01;;;;;;;1999.90;999.90;;;18.80;99.90;;;;;;5077801;28;20438;-83
2021/07/08 04:52:27;;;;;;;1999.90;999.90;;;18.80;99.90;;;;;;5077630;28;20453;-82
2021/07/08 04:54:53;;;;;;;1999.90;999.90;;;18.80;99.90;;;;;;5078079;28;20406;-82
2021/07/08 04:57:19;;;;;;;1999.90;999.90;;;18.70;99.90;;;;;;5076836;28;20195;-83
2021/07/08 04:59:47;;;;;;;1999.90;999.90;;;18.70;99.90;;;;;;5078445;28;20172;-83
2021/07/08 05:02:14;;;;;;;1999.90;999.90;;;18.70;99.90;;;;;;5077705;28;20160;-82
2021/07/08 05:04:39;;;;;;;1999.90;999.90;;;18.60;99.90;;;;;;5060177;28;20410;-82
2021/07/08 05:07:05;;;;;;;1999.90;999.90;;;18.70;99.90;;;;;;5078222;28;20433;-83
2021/07/08 05:09:31;;;;;;;1999.90;999.90;;;18.70;99.90;;;;;;5077415;28;20156;-83
2021/07/08 05:11:57;;;;;;;1999.90;999.90;;;18.70;99.90;;;;;;5079701;28;20192;-84
2021/07/08 05:14:22;;;;;;;1999.90;999.90;;;18.70;99.90;;;;;;5079225;28;20160;-84
2021/07/08 05:16:48;;;;;;;1999.90;999.90;;;18.70;99.90;;;;;;5079125;28;20211;-84
2021/07/08 05:19:14;;;;;;;1999.90;999.90;;;18.80;99.90;;;;;;5078398;28;20171;-84
2021/07/08 05:21:50;;;;;;;1999.90;999.90;;;18.80;99.90;;;;;;5080060;28;20168;-84
2021/07/08 05:24:23;;;;;;;1999.90;999.90;;;18.80;99.90;;;;;;5080226;28;20649;-84
2021/07/08 05:26:50;;;;;;;1999.90;999.90;;;18.80;99.90;;;;;;5079520;28;20440;-84
2021/07/08 05:29:23;;;;;;;1999.90;999.90;;;18.80;99.90;;;;;;5079962;28;20459;-84
2021/07/08 05:31:49;;;;;;;1999.90;999.90;;;18.80;99.90;;;;;;5062077;28;20442;-84
2021/07/08 05:34:15;;;;;;;1999.90;999.90;;;18.80;99.90;;;;;;5079781;28;20414;-84
2021/07/08 05:36:41;;;;;;;1999.90;999.90;;;18.80;99.90;;;;;;5061793;28;20990;-84
2021/07/08 05:39:07;;;;;;;1999.90;999.90;;;18.90;99.90;;;;;;5078281;28;20452;-84
2021/07/08 05:41:32;;;;;;;1999.90;999.90;;;18.90;99.90;;;;;;5079067;28;20178;-84
2021/07/08 05:43:58;;;;;;;1999.90;999.90;;;19.00;99.90;;;;;;5079420;28;20183;-84
2021/07/08 05:46:26;;;;;;;1999.90;999.90;;;19.00;99.90;;;;;;5078924;28;20231;-84
2021/07/08 05:48:51;;;;;;;1999.90;999.90;;;19.10;99.90;;;;;;5079508;28;20251;-84
2021/07/08 05:51:21;;;;;;;1999.90;999.90;;;19.10;99.90;;;;;;5061402;28;20980;-84
2021/07/08 05:53:46;;;;;;;1999.90;999.90;;;19.20;99.90;;;;;;5079157;28;20199;-84
2021/07/08 05:56:12;;;;;;;1999.90;999.90;;;19.30;99.90;;;;;;5079457;28;20430;-83
2021/07/08 05:58:38;;;;;;;1999.90;999.90;;;19.50;99.90;;;;;;5078718;28;20165;-83
2021/07/08 06:01:03;;;;;;;1999.90;999.90;;;19.50;99.90;;;;;;5077235;28;20164;-83
2021/07/08 06:03:29;;;;;;;1999.90;999.90;;;19.50;99.90;;;;;;5077512;28;20196;-83
2021/07/08 06:05:55;;;;;;;1999.90;999.90;;;19.40;99.90;;;;;;5077870;28;20195;-83
2021/07/08 06:08:21;;;;;;;1999.90;999.90;;;19.30;99.90;;;;;;5078125;28;21016;-83
2021/07/08 06:10:46;;;;;;;1999.90;999.90;;;19.20;99.90;;;;;;5078161;28;20657;-83
2021/07/08 06:13:12;;;;;;;1999.90;999.90;;;19.10;99.90;;;;;;5077933;28;20677;-83
2021/07/08 06:15:38;;;;;;;1999.90;999.90;;;19.10;99.90;;;;;;5075921;28;20188;-83
2021/07/08 06:18:04;;;;;;;1999.90;999.90;;;19.10;99.90;;;;;;5077255;28;20171;-83
2021/07/08 06:20:31;;;;;;;1999.90;999.90;;;19.10;99.90;;;;;;5076514;28;20399;-83
2021/07/08 06:22:57;;;;;;;1999.90;999.90;;;19.10;99.90;;;;;;5077178;28;20460;-82
2021/07/08 06:25:23;;;;;;;1999.90;999.90;;;19.10;99.90;;;;;;5076841;28;20785;-83
2021/07/08 06:27:49;;;;;;;1999.90;999.90;;;19.10;99.90;;;;;;5075706;28;20800;-83
2021/07/08 06:30:16;;;;;;;1999.90;999.90;;;19.20;99.90;;;;;;5077066;28;20777;-83
2021/07/08 06:32:43;;;;;;;1999.90;999.90;;;19.30;99.90;;;;;;5076498;28;20537;-82
2021/07/08 06:35:09;;;;;;;1999.90;999.90;;;19.40;99.90;;;;;;5076696;28;20410;-82
2021/07/08 06:37:37;;;;;;;1999.90;999.90;;;19.40;99.90;;;;;;5076551;28;20398;-82
2021/07/08 06:40:04;;;;;;;1999.90;999.90;;;19.50;99.90;;;;;;5077267;28;20398;-83
2021/07/08 06:42:30;;;;;;;1999.90;999.90;;;19.50;99.90;;;;;;5076763;28;20402;-83
2021/07/08 06:44:56;;;;;;;1999.90;999.90;;;19.50;99.90;;;;;;5075773;28;20417;-83
2021/07/08 06:47:22;;;;;;;1999.90;999.90;;;19.60;99.90;;;;;;5076451;28;20210;-83
2021/07/08 06:49:48;;;;;;;1999.90;999.90;;;19.70;99.90;;;;;;5076985;28;20619;-83
2021/07/08 06:52:16;;;;;;;1999.90;999.90;;;19.80;99.90;;;;;;5076766;28;20449;-83
2021/07/08 06:54:42;;;;;;;1999.90;999.90;;;19.80;99.90;;;;;;5075617;28;20172;-82
2021/07/08 06:57:07;;;;;;;1999.90;999.90;;;19.90;99.90;;;;;;5074714;28;21017;-83
2021/07/08 06:59:33;;;;;;;1999.90;999.90;;;20.00;99.90;;;;;;5058529;28;20210;-83
2021/07/08 07:01:59;;;;;;;1999.90;999.90;;;20.20;99.90;;;;;;5077102;28;20544;-82
2021/07/08 07:04:25;;;;;;;1999.90;999.90;;;20.20;99.90;;;;;;5076628;28;20171;-83
2021/07/08 07:06:51;;;;;;;1999.90;999.90;;;20.30;99.90;;;;;;5076439;28;20417;-80
2021/07/08 07:09:18;;;;;;;1999.90;999.90;;;20.40;99.90;;;;;;5076303;28;20532;-83
2021/07/08 07:11:44;;;;;;;1999.90;999.90;;;20.50;99.90;;;;;;5076772;28;20178;-83
2021/07/08 07:14:10;;;;;;;1999.90;999.90;;;20.60;99.90;;;;;;5077047;28;20398;-83
2021/07/08 07:16:35;;;;;;;1999.90;999.90;;;20.70;99.90;;;;;;5075972;28;20191;-83
2021/07/08 07:19:01;;;;;;;1999.90;999.90;;;20.70;99.90;;;;;;5076178;28;20163;-82
2021/07/08 07:21:27;;;;;;;1999.90;999.90;;;20.80;99.90;;;;;;5076274;28;20214;-83
2021/07/08 07:23:52;;;;;;;1999.90;999.90;;;20.80;99.90;;;;;;5076399;28;20171;-82
2021/07/08 07:26:21;;;;;;;1999.90;999.90;;;20.90;99.90;;;;;;5077047;28;20232;-83
2021/07/08 07:28:48;;;;;;;1999.90;999.90;;;21.00;99.90;;;;;;5075040;28;20171;-83
2021/07/08 07:31:14;;;;;;;1999.90;999.90;;;21.00;99.90;;;;;;5058248;28;20499;-83
2021/07/08 07:33:42;;;;;;;1999.90;999.90;;;21.20;99.90;;;;;;5061604;28;20469;-83
2021/07/08 07:36:10;;;;;;;1999.90;999.90;;;21.40;99.90;;;;;;5080350;28;20958;-83
2021/07/08 07:38:37;;;;;;;1999.90;999.90;;;21.50;99.90;;;;;;5078667;28;20409;-83
2021/07/08 07:41:02;;;;;;;1999.90;999.90;;;21.60;99.90;;;;;;5079768;28;20406;-83
2021/07/08 07:43:28;;;;;;;1999.90;999.90;;;21.70;99.90;;;;;;5079460;28;20402;-83
2021/07/08 07:45:54;;;;;;;1999.90;999.90;;;21.70;99.90;;;;;;5079797;28;20709;-83
2021/07/08 07:48:20;;;;;;;1999.90;999.90;;;21.80;99.90;;;;;;5078441;28;20172;-83
2021/07/08 07:50:45;;;;;;;1999.90;999.90;;;21.70;99.90;;;;;;5079778;28;20163;-82
2021/07/08 07:53:11;;;;;;;1999.90;999.90;;;21.80;99.90;;;;;;5078417;28;20202;-83
2021/07/08 07:55:37;;;;;;;1999.90;999.90;;;21.90;99.90;;;;;;5078130;28;20218;-82
2021/07/08 07:58:05;;;;;;;1999.90;999.90;;;21.80;99.90;;;;;;5078254;28;20164;-83
2021/07/08 08:00:37;;;;;;;1999.90;999.90;;;21.80;99.90;;;;;;5061514;28;20429;-83
2021/07/08 08:03:04;;;;;;;1999.90;999.90;;;21.80;99.90;;;;;;5079465;28;20566;-83
2021/07/08 08:05:36;;;;;;;1999.90;999.90;;;21.90;99.90;;;;;;5078443;28;21019;-82
2021/07/08 08:10:47;;;;;;;1999.90;999.90;;;22.00;99.90;;;;;;5079101;28;20389;-83
2021/07/08 08:13:14;;;;;;;1999.90;999.90;;;22.00;99.90;;;;;;5061143;28;20442;-83
2021/07/08 08:15:40;;;;;;;1999.90;999.90;;;21.90;99.90;;;;;;5079159;28;20414;-83
2021/07/08 08:18:06;;;;;;;1999.90;999.90;;;22.00;99.90;;;;;;5060252;28;20416;-82
2021/07/08 08:20:32;;;;;;;1999.90;999.90;;;22.20;99.90;;;;;;5077900;28;20893;-82
2021/07/08 08:22:59;;;;;;;1999.90;999.90;;;22.20;99.90;;;;;;5079349;28;20168;-80
2021/07/08 08:25:25;;;;;;;1999.90;999.90;;;22.40;99.90;;;;;;5079245;28;20183;-82
2021/07/08 08:27:51;;;;;;;1999.90;999.90;;;22.60;99.90;;;;;;5078725;28;20398;-82
2021/07/08 08:30:17;;;;;;;1999.90;999.90;;;22.70;99.90;;;;;;5060546;28;20172;-82
2021/07/08 08:32:45;;;;;;;1999.90;999.90;;;22.80;99.90;;;;;;5076897;28;20206;-82
2021/07/08 08:35:11;;;;;;;1999.90;999.90;;;22.80;99.90;;;;;;5078594;28;20160;-82
2021/07/08 08:37:40;;;;;;;1999.90;999.90;;;22.90;99.90;;;;;;5061556;28;20404;-83
2021/07/08 08:40:07;;;;;;;1999.90;999.90;;;22.90;99.90;;;;;;5060516;28;20414;-82
2021/07/08 08:42:32;;;;;;;1999.90;999.90;;;22.80;99.90;;;;;;5078943;28;20394;-82
2021/07/08 08:44:58;;;;;;;1999.90;999.90;;;22.80;99.90;;;;;;5076215;28;20470;-82
2021/07/08 08:47:24;;;;;;;1999.90;999.90;;;22.80;99.90;;;;;;5078357;28;20190;-82
2021/07/08 08:49:55;;;;;;;1999.90;999.90;;;22.80;99.90;;;;;;5078941;28;20160;-82
2021/07/08 08:52:21;;;;;;;1999.90;999.90;;;22.90;99.90;;;;;;5078637;28;20465;-82
2021/07/08 08:54:50;;;;;;;1999.90;999.90;;;23.10;99.90;;;;;;5077125;28;20407;-82
2021/07/08 08:57:16;;;;;;;1999.90;999.90;;;23.20;99.90;;;;;;5078295;28;20418;-82
2021/07/08 08:59:41;;;;;;;1999.90;999.90;;;23.20;99.80;;;;;;5078744;28;20761;-82
2021/07/08 09:02:19;;;;;;;1999.90;999.90;;;23.40;99.90;;;;;;5077611;28;20662;-81
2021/07/08 09:04:50;;;;;;;1999.90;999.90;;;23.40;99.90;;;;;;5059995;28;20262;-83
2021/07/08 09:07:35;;;;;;;1999.90;999.90;;;23.50;98.60;;;;;;5043983;28;20434;-82
2021/07/08 09:10:11;;;;;;;1999.90;999.90;;;23.50;99.20;;;;;;5078563;28;20729;-83
2021/07/08 09:12:37;;;;;;;1999.90;999.90;;;23.50;98.30;;;;;;5077956;28;20442;-83
2021/07/08 09:15:20;;;;;;;1999.90;999.90;;;23.60;97.10;;;;;;5078244;28;20448;-82
2021/07/08 09:17:47;;;;;;;1999.90;999.90;;;23.50;95.40;;;;;;5059484;28;20258;-83
2021/07/08 09:20:15;;;;;;;1999.90;999.90;;;23.50;99.00;;;;;;5059730;28;20493;-82
2021/07/08 09:22:45;;;;;;;1999.90;999.90;;;23.70;97.90;;;;;;5059929;28;20410;-82
2021/07/08 09:25:30;;;;;;;1999.90;999.90;;;23.80;98.00;;;;;;5077964;28;20402;-82
2021/07/08 09:28:16;;;;;;;1999.90;999.90;;;23.90;96.00;;;;;;5077706;28;20436;-82
2021/07/08 09:30:43;;;;;;;1999.90;999.90;;;24.00;96.00;;;;;;5077646;28;20413;-81
2021/07/08 09:33:28;;;;;;;1999.90;999.90;;;24.10;97.90;;;;;;5077919;28;20481;-82
2021/07/08 09:36:05;;;;;;;1999.90;999.90;;;24.30;94.80;;;;;;5078767;28;20820;-82
2021/07/08 09:38:31;;;;;;;1999.90;999.90;;;24.20;99.10;;;;;;5059815;28;20406;-83
2021/07/08 09:41:16;;;;;;;1999.90;999.90;;;24.10;97.10;;;;;;5076715;28;20406;-82
2021/07/08 09:43:44;;;;;;;1999.90;999.90;;;24.10;96.60;;;;;;5077932;28;20410;-82
2021/07/08 09:46:12;;;;;;;1999.90;999.90;;;24.50;96.10;;;;;;5077710;28;20759;-82
2021/07/08 09:48:38;;;;;;;1999.90;999.90;;;24.60;96.80;;;;;;5059204;28;20497;-82
2021/07/08 09:51:05;;;;;;;1999.90;999.90;;;24.80;95.10;;;;;;5076949;28;21006;-81
2021/07/08 09:53:31;;;;;;;1999.90;999.90;;;25.00;93.60;;;;;;5060328;28;20490;-83
2021/07/08 09:58:57;;;;;;;1999.90;999.90;;;25.00;89.10;;;;;;5078769;28;20378;-82
2021/07/08 10:01:25;;;;;;;1999.90;999.90;;;25.10;90.30;;;;;;5078252;28;20387;-82
2021/07/08 10:03:51;;;;;;;1999.90;999.90;;;25.20;93.20;;;;;;5059002;28;20419;-83
2021/07/08 10:06:19;;;;;;;1999.90;999.90;;;25.10;88.00;;;;;;5076603;28;20441;-83
2021/07/08 10:08:45;;;;;;;1999.90;999.90;;;25.10;86.80;;;;;;5058738;28;20533;-82
2021/07/08 10:11:13;;;;;;;1999.90;999.90;;;25.00;85.50;;;;;;5058654;28;20780;-82
2021/07/08 10:13:39;;;;;;;1999.90;999.90;;;25.00;83.40;;;;;;5058867;28;20407;-82
2021/07/08 10:16:09;;;;;;;1999.90;999.90;;;25.00;83.60;;;;;;5058790;28;20427;-83
2021/07/08 10:18:38;;;;;;;1999.90;999.90;;;24.90;78.90;;;;;;5058754;28;20425;-83
2021/07/08 10:21:08;;;;;;;1999.90;999.90;;;24.80;77.00;;;;;;5077212;28;20403;-83
2021/07/08 10:23:37;;;;;;;1999.90;999.90;;;24.80;84.60;;;;;;5077648;28;20885;-83
2021/07/08 10:26:07;;;;;;;1999.90;999.90;;;24.90;86.60;;;;;;5078134;28;20502;-83
2021/07/08 10:28:36;;;;;;;1999.90;999.90;;;24.90;82.70;;;;;;5077711;28;20441;-83
2021/07/08 10:31:04;;;;;;;1999.90;999.90;;;24.90;85.60;;;;;;5060174;28;20461;-82
2021/07/08 10:33:30;;;;;;;1999.90;999.90;;;24.90;80.90;;;;;;5077214;28;20464;-83
2021/07/08 10:35:56;;;;;;;1999.90;999.90;;;24.80;77.20;;;;;;5058931;28;20434;-83
2021/07/08 10:38:41;;;;;;;1999.90;999.90;;;24.70;79.90;;;;;;5060054;28;20255;-83
2021/07/08 10:41:09;;;;;;;1999.90;999.90;;;24.80;81.40;;;;;;5077831;28;20423;-83
2021/07/08 10:43:36;;;;;;;1999.90;999.90;;;25.20;90.00;;;;;;5077412;28;20399;-83
2021/07/08 10:46:06;;;;;;;1999.90;999.90;;;25.30;86.90;;;;;;5077234;28;20419;-83
2021/07/08 10:48:41;;;;;;;1999.90;999.90;;;25.50;81.60;;;;;;5077482;28;20396;-83
2021/07/08 10:51:08;;;;;;;1999.90;999.90;;;25.50;80.80;;;;;;5076028;28;20394;-83
2021/07/08 10:53:40;;;;;;;1999.90;999.90;;;25.70;86.60;;;;;;5076710;28;20898;-82
2021/07/08 10:56:12;;;;;;;1999.90;999.90;;;25.80;74.10;;;;;;5076204;28;20577;-82
2021/07/08 10:58:49;;;;;;;1999.90;999.90;;;25.80;82.90;;;;;;5058672;28;20400;-83
2021/07/08 11:01:21;;;;;;;1999.90;999.90;;;25.90;81.00;;;;;;5076222;28;20385;-82
2021/07/08 11:03:51;;;;;;;1999.90;999.90;;;26.00;78.20;;;;;;5075196;28;20773;-83
2021/07/08 11:06:30;;;;;;;1999.90;999.90;;;26.10;72.50;;;;;;5075676;28;20516;-82
2021/07/08 11:09:19;;;;;;;1999.90;999.90;;;26.10;75.70;;;;;;5058793;28;20743;-82
2021/07/08 11:11:50;;;;;;;1999.90;999.90;;;26.10;73.40;;;;;;5076301;28;20462;-82
2021/07/08 11:14:17;;;;;;;1999.90;999.90;;;26.10;68.80;;;;;;5075093;28;20777;-82
2021/07/08 11:16:50;;;;;;;1999.90;999.90;;;25.90;74.50;;;;;;5075689;28;20462;-82
2021/07/08 11:19:37;;;;;;;1999.90;999.90;;;25.70;64.10;;;;;;5059173;28;20416;-82
2021/07/08 11:22:08;;;;;;;1999.90;999.90;;;25.50;73.90;;;;;;5069409;28;20782;-82
2021/07/08 11:24:41;;;;;;;1999.90;999.90;;;25.50;77.60;;;;;;5075662;28;20758;-82
2021/07/08 11:27:08;;;;;;;1999.90;999.90;;;25.30;76.20;;;;;;5074902;28;20433;-82
2021/07/08 11:29:45;;;;;;;1999.90;999.90;;;25.10;73.50;;;;;;5057671;28;20448;-82
2021/07/08 11:32:23;;;;;;;1999.90;999.90;;;25.00;79.00;;;;;;5057949;28;20523;-82
2021/07/08 11:34:59;;;;;;;1999.90;999.90;;;25.00;80.20;;;;;;5076084;28;20519;-82
2021/07/08 11:37:31;;;;;;;1999.90;999.90;;;24.90;82.00;;;;;;5075747;28;20481;-82
2021/07/08 11:40:01;;;;;;;1999.90;999.90;;;24.90;85.80;;;;;;5074884;28;20860;-83
2021/07/08 11:42:32;;;;;;;1999.90;999.90;;;24.90;83.90;;;;;;5058140;28;20407;-83
2021/07/08 11:45:25;;;;;;;1999.90;999.90;;;24.90;84.90;;;;;;5058933;28;20421;-83
2021/07/08 11:47:56;;;;;;;1999.90;999.90;;;24.80;80.50;;;;;;5056750;28;20402;-82
2021/07/08 11:50:26;;;;;;;1999.90;999.90;;;24.80;82.50;;;;;;5057549;28;20814;-82
2021/07/08 11:53:10;;;;;;;1999.90;999.90;;;24.80;87.00;;;;;;5075258;28;20450;-83
2021/07/08 11:55:40;;;;;;;1999.90;999.90;;;24.80;86.00;;;;;;5075384;28;20430;-82
2021/07/08 11:58:07;;;;;;;1999.90;999.90;;;24.90;87.50;;;;;;5075598;28;20809;-82
2021/07/08 12:00:39;;;;;;;1999.90;999.90;;;24.90;88.00;;;;;;5075118;28;20402;-82
2021/07/08 12:03:22;;;;;;;1999.90;999.90;;;24.90;89.90;;;;;;5057189;28;20440;-82
2021/07/08 12:05:50;;;;;;;1999.90;999.90;;;24.90;90.20;;;;;;5075766;28;20918;-82
2021/07/08 12:08:21;;;;;;;1999.90;999.90;;;24.90;88.10;;;;;;5075821;28;20415;-82
2021/07/08 12:10:48;;;;;;;1999.90;999.90;;;24.90;88.00;;;;;;5075915;28;20442;-82